^^
WestSenecaWeather Station Historical Data
Daily Summary for January 12, 2017 Units:  Metric    English   Both
Daily Weekly Monthly Yearly Custom
  High: Low: Average:
Temperature: 14.9 °C 0.7 °C 7.3 °C
Dew Point: 12 °C -0.9 °C 5.9 °C
Humidity: 97% 81% 91%
Wind Speed: 41.8km/h 0km/h 15.4km/h
Wind Gust: 41.8km/h - -
Wind- - SW
Pressure: 1024.3 hPa 1005.3 hPa -
Precipitation: 9.65 mm    
Historical Graphs
 
 
Tabular Data for January 12, 2017
Time Temperature Dew Point Pressure Wind Wind Speed Wind Gust Humidity Rainfall Rate (Hourly) solar
00:02 10.3 °C 7.9 °C 1007.7 hPa South 29 km/h 29 km/h 85% 1.02 mm 0.0 W/m2
00:07 10.5 °C 7.9 °C 1007.3 hPa SSE 24.1 km/h 24.1 km/h 84% 1.02 mm 0.0 W/m2
00:12 10.6 °C 7.9 °C 1007.3 hPa SSE 20.4 km/h 20.4 km/h 84% 1.02 mm 0.0 W/m2
00:17 10.5 °C 7.9 °C 1007.3 hPa SSW 27.8 km/h 27.8 km/h 84% 1.02 mm 0.0 W/m2
00:22 10.5 °C 7.9 °C 1007.3 hPa SSE 18.5 km/h 18.5 km/h 84% 1.02 mm 0.0 W/m2
00:27 10.7 °C 8.1 °C 1007 hPa South 24.1 km/h 24.1 km/h 84% 1.02 mm 0.0 W/m2
00:32 10.8 °C 8.2 °C 1007 hPa SSE 16.7 km/h 16.7 km/h 84% 0.51 mm 0.0 W/m2
00:37 11 °C 8.4 °C 1007 hPa SSE 27.8 km/h 27.8 km/h 84% 0.51 mm 0.0 W/m2
00:42 11.3 °C 8.7 °C 1006.7 hPa SSW 25.9 km/h 25.9 km/h 84% 0.25 mm 0.0 W/m2
00:47 11.5 °C 8.7 °C 1006.7 hPa SSE 24.1 km/h 24.1 km/h 83% 0 mm 0.0 W/m2
00:52 11.5 °C 8.9 °C 1006.3 hPa South 25.9 km/h 25.9 km/h 84% 0 mm 0.0 W/m2
00:57 11.6 °C 8.9 °C 1006.3 hPa South 22.5 km/h 22.5 km/h 84% 0 mm 0.0 W/m2
01:02 11.8 °C 9.2 °C 1006.3 hPa SSE 37 km/h 37 km/h 84% 0 mm 0.0 W/m2
01:07 12 °C 9.2 °C 1006 hPa SSW 25.9 km/h 25.9 km/h 83% 0 mm 0.0 W/m2
01:12 12.2 °C 9.4 °C 1006 hPa SSE 31.5 km/h 31.5 km/h 83% 0 mm 0.0 W/m2
01:17 12.2 °C 9.6 °C 1006 hPa SSW 22.2 km/h 22.2 km/h 84% 0 mm 0.0 W/m2
01:22 12.3 °C 9.7 °C 1006 hPa South 18.5 km/h 18.5 km/h 84% 0 mm 0.0 W/m2
01:27 12.4 °C 9.8 °C 1005.6 hPa SE 35.2 km/h 35.2 km/h 84% 0 mm 0.0 W/m2
01:32 12.4 °C 9.8 °C 1006 hPa SSW 25.9 km/h 25.9 km/h 84% 0 mm 0.0 W/m2
01:37 12.4 °C 9.8 °C 1005.6 hPa SSW 22.2 km/h 22.2 km/h 84% 0 mm 0.0 W/m2
01:42 12.6 °C 9.9 °C 1005.6 hPa SSE 18.5 km/h 18.5 km/h 84% 0 mm 0.0 W/m2
01:47 12.7 °C 10.2 °C 1005.6 hPa SSW 22.2 km/h 22.2 km/h 85% 0 mm 0.0 W/m2
01:52 12.3 °C 10.2 °C 1005.6 hPa South 20.4 km/h 20.4 km/h 87% 0.25 mm 0.0 W/m2
01:57 12.2 °C 10.2 °C 1005.6 hPa South 29.6 km/h 29.6 km/h 88% 0.25 mm 0.0 W/m2
02:02 12.2 °C 10.2 °C 1005.3 hPa SW 22.2 km/h 22.2 km/h 88% 0.25 mm 0.0 W/m2
02:07 12.2 °C 10.2 °C 1005.3 hPa South 24.1 km/h 24.1 km/h 88% 0.25 mm 0.0 W/m2
02:12 12.4 °C 10.3 °C 1005.3 hPa SE 31.5 km/h 31.5 km/h 87% 0.25 mm 0.0 W/m2
02:17 12.4 °C 10.3 °C 1005.3 hPa SW 25.9 km/h 25.9 km/h 87% 0.25 mm 0.0 W/m2
02:22 12.7 °C 10.4 °C 1005.3 hPa SSE 31.5 km/h 31.5 km/h 86% 0.25 mm 0.0 W/m2
02:27 12.7 °C 10.3 °C 1005.3 hPa SSW 37 km/h 37 km/h 85% 0.25 mm 0.0 W/m2
02:32 12.8 °C 10.4 °C 1005.3 hPa SSE 18.5 km/h 18.5 km/h 85% 0.25 mm 0.0 W/m2
02:37 12.8 °C 10.4 °C 1005.3 hPa SSW 29.6 km/h 29.6 km/h 85% 0.25 mm 0.0 W/m2
02:42 12.9 °C 10.4 °C 1005.3 hPa SSE 16.7 km/h 16.7 km/h 85% 0.25 mm 0.0 W/m2
02:47 13.1 °C 10.4 °C 1005.3 hPa South 24.1 km/h 24.1 km/h 84% 0.25 mm 0.0 W/m2
02:52 13.1 °C 10.4 °C 1005.3 hPa SSW 20.4 km/h 20.4 km/h 84% 0 mm 0.0 W/m2
02:57 13.3 °C 10.7 °C 1005.3 hPa South 27.8 km/h 27.8 km/h 84% 0 mm 0.0 W/m2
03:02 13.5 °C 10.7 °C 1005.3 hPa SSE 31.5 km/h 31.5 km/h 83% 0 mm 0.0 W/m2
03:07 13.7 °C 10.7 °C 1005.3 hPa South 22.2 km/h 22.2 km/h 82% 0 mm 0.0 W/m2
03:12 13.7 °C 10.7 °C 1005.3 hPa SSE 18.5 km/h 18.5 km/h 82% 0 mm 0.0 W/m2
03:17 13.7 °C 10.7 °C 1005.3 hPa South 27.8 km/h 27.8 km/h 82% 0 mm 0.0 W/m2
03:22 13.7 °C 10.7 °C 1005.3 hPa South 24.1 km/h 24.1 km/h 82% 0 mm 0.0 W/m2
03:27 13.8 °C 10.8 °C 1005.3 hPa SSW 18.5 km/h 18.5 km/h 82% 0 mm 0.0 W/m2
03:32 13.9 °C 10.9 °C 1005.3 hPa SSE 24.1 km/h 24.1 km/h 82% 0 mm 0.0 W/m2
03:37 14.1 °C 10.8 °C 1005.3 hPa South 25.9 km/h 25.9 km/h 81% 0 mm 0.0 W/m2
03:42 14.2 °C 11 °C 1005.3 hPa SE 37 km/h 37 km/h 81% 0 mm 0.0 W/m2
03:47 14.2 °C 11 °C 1005.3 hPa SE 33.3 km/h 33.3 km/h 81% 0 mm 0.0 W/m2
03:52 14.2 °C 11 °C 1005.6 hPa SSW 29.6 km/h 29.6 km/h 81% 0 mm 0.0 W/m2
03:57 14.1 °C 11.1 °C 1005.6 hPa South 35.4 km/h 35.4 km/h 82% 0 mm 0.0 W/m2
04:02 14.2 °C 11.2 °C 1005.3 hPa South 27.8 km/h 27.8 km/h 82% 0 mm 0.0 W/m2
04:07 14.2 °C 11.2 °C 1005.3 hPa SSW 24.1 km/h 24.1 km/h 82% 0 mm 0.0 W/m2
04:12 14.3 °C 11.2 °C 1005.3 hPa South 27.8 km/h 27.8 km/h 82% 0 mm 0.0 W/m2
04:17 14.3 °C 11.3 °C 1005.3 hPa South 33.3 km/h 33.3 km/h 82% 0 mm 0.0 W/m2
04:22 14.3 °C 11.2 °C 1005.3 hPa SSE 16.7 km/h 16.7 km/h 82% 0 mm 0.0 W/m2
04:27 14.2 °C 11.4 °C 1005.3 hPa SSE 25.9 km/h 25.9 km/h 83% 0 mm 0.0 W/m2
04:32 14.2 °C 11.4 °C 1005.3 hPa SSW 20.4 km/h 20.4 km/h 83% 0 mm 0.0 W/m2
04:37 14.3 °C 11.4 °C 1005.3 hPa South 24.1 km/h 24.1 km/h 83% 0 mm 0.0 W/m2
04:42 14.1 °C 11.4 °C 1005.3 hPa South 24.1 km/h 24.1 km/h 84% 0 mm 0.0 W/m2
04:47 14.1 °C 11.7 °C 1005.3 hPa SSE 24.1 km/h 24.1 km/h 86% 0.25 mm 0.0 W/m2
04:52 13.9 °C 11.8 °C 1005.3 hPa South 13 km/h 13 km/h 87% 0.25 mm 0.0 W/m2
04:57 14.1 °C 11.9 °C 1005.6 hPa WSW 24.1 km/h 24.1 km/h 87% 0.25 mm 0.0 W/m2
05:02 14.2 °C 11.8 °C 1005.6 hPa West 29.6 km/h 29.6 km/h 86% 0.25 mm 0.0 W/m2
05:07 14.4 °C 11.9 °C 1005.6 hPa SW 35.2 km/h 35.2 km/h 85% 0.25 mm 0.0 W/m2
05:12 14.7 °C 12 °C 1006 hPa WSW 14.8 km/h 14.8 km/h 84% 0.25 mm 0.0 W/m2
05:17 14.8 °C 11.9 °C 1006 hPa SSE 31.5 km/h 31.5 km/h 83% 0.25 mm 0.0 W/m2
05:22 14.9 °C 11.8 °C 1006 hPa SW 37 km/h 37 km/h 82% 0.25 mm 0.0 W/m2
05:27 14.9 °C 11.8 °C 1006 hPa SSE 20.4 km/h 20.4 km/h 82% 0.25 mm 0.0 W/m2
05:32 14.8 °C 11.7 °C 1006.3 hPa SSE 27.8 km/h 27.8 km/h 82% 0.25 mm 0.0 W/m2
05:37 14.5 °C 11.8 °C 1006.3 hPa SW 20.4 km/h 20.4 km/h 84% 0.25 mm 0.0 W/m2
05:42 14.4 °C 11.8 °C 1006.3 hPa SSE 18.5 km/h 18.5 km/h 84% 0.25 mm 0.0 W/m2
05:47 14.5 °C 11.8 °C 1006.3 hPa SW 18.5 km/h 18.5 km/h 84% 0 mm 0.0 W/m2
05:52 14.6 °C 11.9 °C 1006.3 hPa South 16.7 km/h 16.7 km/h 84% 0 mm 0.0 W/m2
05:57 14.6 °C 11.9 °C 1006.3 hPa South 14.8 km/h 14.8 km/h 84% 0 mm 0.0 W/m2
06:02 14.6 °C 11.9 °C 1006.3 hPa SW 22.5 km/h 22.5 km/h 84% 0 mm 0.0 W/m2
06:07 14.7 °C 11.8 °C 1006.7 hPa SW 20.4 km/h 20.4 km/h 83% 0 mm 0.0 W/m2
06:12 14.4 °C 11.9 °C 1006.7 hPa ENE 16.7 km/h 16.7 km/h 85% 0.25 mm 0.0 W/m2
06:17 14.1 °C 11.8 °C 1006.7 hPa WSW 13 km/h 13 km/h 86% 0.25 mm 0.0 W/m2
06:22 13.9 °C 12 °C 1006.7 hPa South 31.5 km/h 31.5 km/h 88% 0.25 mm 0.0 W/m2
06:27 13.8 °C 11.9 °C 1007 hPa WSW 14.8 km/h 14.8 km/h 88% 0.25 mm 0.0 W/m2
06:33 13.1 °C 10.7 °C 1007 hPa SW 11.1 km/h 11.1 km/h 85% 0.25 mm 0.0 W/m2
06:38 12.7 °C 11.1 °C 1007 hPa WSW 11.1 km/h 11.1 km/h 90% 0.25 mm 0.0 W/m2
06:43 12.9 °C 11.4 °C 1007 hPa SW 8 km/h 8 km/h 91% 0.25 mm 0.0 W/m2
06:48 13.2 °C 11.6 °C 1007 hPa SSW 20.9 km/h 20.9 km/h 90% 0.25 mm 0.0 W/m2
06:53 13.5 °C 11.6 °C 1007.3 hPa South 17.7 km/h 17.7 km/h 88% 0.25 mm 0.0 W/m2
06:58 13.7 °C 11.4 °C 1007.3 hPa SW 16.7 km/h 16.7 km/h 86% 0.25 mm 0.0 W/m2
07:03 14 °C 11.5 °C 1007.3 hPa SSW 9.7 km/h 9.7 km/h 85% 0.25 mm 0.0 W/m2
07:08 14.2 °C 11.5 °C 1007.3 hPa SSW 11.1 km/h 11.1 km/h 84% 0.25 mm 0.0 W/m2
07:13 14.2 °C 11.6 °C 1007.3 hPa SW 11.3 km/h 12.1 km/h 84% 0 mm 0.0 W/m2
07:18 14.3 °C 11.7 °C 1007.3 hPa SSW 27.8 km/h 27.8 km/h 84% 0 mm 0.0 W/m2
07:23 14.3 °C 11.5 °C 1007.7 hPa WSW 11.3 km/h 11.3 km/h 83% 0 mm 0.0 W/m2
07:28 13.8 °C 11 °C 1007.7 hPa WSW 25.9 km/h 25.9 km/h 83% 0 mm 0.0 W/m2
07:33 13.4 °C 10.8 °C 1007.7 hPa South 16.7 km/h 16.7 km/h 84% 0 mm 0.0 W/m2
07:38 13.2 °C 10.9 °C 1007.7 hPa West 18.5 km/h 18.5 km/h 86% 0 mm 0.0 W/m2
07:43 13.1 °C 11.2 °C 1008 hPa SSW 22.2 km/h 22.2 km/h 88% 0 mm 0.0 W/m2
07:48 13.2 °C 11.4 °C 1008 hPa WSW 29.6 km/h 29.6 km/h 89% 0 mm 0.0 W/m2
07:53 13.3 °C 11.6 °C 1008 hPa SW 27.8 km/h 27.8 km/h 89% 0 mm 0.0 W/m2
07:58 13.4 °C 11.6 °C 1008 hPa South 27.8 km/h 27.8 km/h 89% 0 mm 0.0 W/m2
08:03 13.3 °C 11.3 °C 1008 hPa West 20.4 km/h 20.4 km/h 88% 0 mm 0.0 W/m2
08:08 12.7 °C 10.7 °C 1008.4 hPa West 41.8 km/h 41.8 km/h 88% 0 mm 0.0 W/m2
08:13 11.4 °C 9.4 °C 1008.4 hPa West 24.1 km/h 24.1 km/h 88% 0 mm 0.0 W/m2
08:18 10.3 °C 8.8 °C 1008.7 hPa WSW 18.5 km/h 18.5 km/h 90% 0 mm 0.0 W/m2
08:23 9.7 °C 8.3 °C 1009 hPa South 16.7 km/h 16.7 km/h 91% 0 mm 0.0 W/m2
08:28 9.2 °C 8.1 °C 1009 hPa West 13 km/h 13 km/h 93% 0 mm 0.0 W/m2
08:33 8.9 °C 7.8 °C 1009 hPa South 16.7 km/h 16.7 km/h 93% 0 mm 0.0 W/m2
08:38 8.6 °C 7.7 °C 1009 hPa West 13 km/h 13 km/h 94% 0 mm 0.0 W/m2
08:43 8.4 °C 7.5 °C 1009.4 hPa South 16.7 km/h 16.7 km/h 94% 0 mm 0.0 W/m2
08:48 8.2 °C 7.3 °C 1009.4 hPa SW 14.8 km/h 14.8 km/h 94% 0 mm 0.0 W/m2
08:53 7.9 °C 7.1 °C 1009.4 hPa West 11.1 km/h 11.1 km/h 95% 0 mm 0.0 W/m2
08:58 7.7 °C 6.9 °C 1009.7 hPa South 11.1 km/h 11.1 km/h 95% 0 mm 0.0 W/m2
09:03 7.3 °C 6.6 °C 1009.7 hPa West 20.4 km/h 20.4 km/h 95% 0 mm 0.0 W/m2
09:08 6.9 °C 6.2 °C 1009.7 hPa SW 8 km/h 8 km/h 95% 0 mm 0.0 W/m2
09:13 6.7 °C 6 °C 1009.7 hPa WSW 11.1 km/h 11.1 km/h 95% 0 mm 0.0 W/m2
09:18 6.5 °C 5.8 °C 1009.7 hPa WSW 5.6 km/h 5.6 km/h 95% 0 mm 0.0 W/m2
09:23 6.3 °C 5.6 °C 1010 hPa SW 13 km/h 13 km/h 95% 0 mm 0.0 W/m2
09:28 6.3 °C 5.6 °C 1009.7 hPa South 7.4 km/h 7.4 km/h 95% 0 mm 0.0 W/m2
09:33 6.3 °C 5.7 °C 1010 hPa SW 8 km/h 8 km/h 96% 0 mm 0.0 W/m2
09:38 6.3 °C 5.7 °C 1009.7 hPa SSE 13 km/h 13 km/h 96% 0 mm 0.0 W/m2
09:43 6.2 °C 5.6 °C 1010.4 hPa South 9.3 km/h 9.3 km/h 96% 0 mm 0.0 W/m2
09:48 6.2 °C 5.6 °C 1010.4 hPa South 18.5 km/h 18.5 km/h 96% 0 mm 0.0 W/m2
09:53 6 °C 5.4 °C 1010.4 hPa SSW 13 km/h 13 km/h 96% 0 mm 0.0 W/m2
09:58 5.8 °C 5.2 °C 1010.4 hPa SSW 13 km/h 13 km/h 96% 0 mm 0.0 W/m2
10:03 5.8 °C 5.2 °C 1010.4 hPa South 13 km/h 13 km/h 96% 0 mm 0.0 W/m2
10:08 5.7 °C 5.1 °C 1010 hPa South 11.3 km/h 11.3 km/h 96% 0 mm 0.0 W/m2
10:13 5.7 °C 5.1 °C 1010 hPa SSE 18.5 km/h 18.5 km/h 96% 0 mm 0.0 W/m2
10:18 5.8 °C 5.2 °C 1010.4 hPa SW 7.4 km/h 7.4 km/h 96% 0 mm 0.0 W/m2
10:23 5.8 °C 5.3 °C 1010.7 hPa SSW 11.3 km/h 11.3 km/h 97% 0 mm 0.0 W/m2
10:28 5.8 °C 5.4 °C 1010.7 hPa South 9.3 km/h 9.3 km/h 97% 0 mm 0.0 W/m2
10:33 6 °C 5.6 °C 1010.4 hPa South 9.3 km/h 9.3 km/h 97% 0 mm 0.0 W/m2
10:38 6.2 °C 5.7 °C 1010.4 hPa South 11.1 km/h 11.1 km/h 97% 0 mm 0.0 W/m2
10:43 6.3 °C 5.8 °C 1010.7 hPa South 3.7 km/h 3.7 km/h 97% 0 mm 0.0 W/m2
10:48 6.6 °C 6.1 °C 1010.4 hPa South 11.1 km/h 11.1 km/h 97% 0 mm 0.0 W/m2
10:53 6.8 °C 6.3 °C 1010 hPa South 6.4 km/h 6.4 km/h 97% 0 mm 0.0 W/m2
10:58 7.1 °C 6.6 °C 1010.4 hPa South 5.6 km/h 5.6 km/h 97% 0 mm 0.0 W/m2
11:03 7.2 °C 6.8 °C 1010.4 hPa South 9.3 km/h 9.3 km/h 97% 0 mm 0.0 W/m2
11:08 7.3 °C 6.9 °C 1010 hPa SSW 9.7 km/h 9.7 km/h 97% 0 mm 0.0 W/m2
11:13 7.4 °C 6.9 °C 1010 hPa South 8 km/h 8 km/h 97% 0 mm 0.0 W/m2
11:18 7.4 °C 7 °C 1010 hPa SSW 7.4 km/h 7.4 km/h 97% 0 mm 0.0 W/m2
11:23 7.5 °C 7.1 °C 1010 hPa SW 3.7 km/h 3.7 km/h 97% 0 mm 0.0 W/m2
11:28 7.5 °C 7.1 °C 1009.7 hPa West 1.9 km/h 1.9 km/h 97% 0 mm 0.0 W/m2
11:33 7.6 °C 7.1 °C 1009.4 hPa West 3.7 km/h 3.7 km/h 97% 0 mm 0.0 W/m2
11:38 7.6 °C 7.1 °C 1009.4 hPa West 5.6 km/h 5.6 km/h 97% 0 mm 0.0 W/m2
11:43 7.5 °C 7.1 °C 1009.4 hPa West 6.4 km/h 6.4 km/h 97% 0 mm 0.0 W/m2
11:48 7.4 °C 6.9 °C 1009.4 hPa West 6.4 km/h 6.4 km/h 97% 0 mm 0.0 W/m2
11:53 7.2 °C 6.8 °C 1009.4 hPa West 5.6 km/h 5.6 km/h 97% 0 mm 0.0 W/m2
11:58 7.1 °C 6.6 °C 1010 hPa WSW 9.3 km/h 9.3 km/h 97% 0.25 mm 0.0 W/m2
12:03 7 °C 6.6 °C 1009.4 hPa West 6.4 km/h 6.4 km/h 97% 0.25 mm 0.0 W/m2
12:08 6.8 °C 6.4 °C 1009.4 hPa West 7.4 km/h 7.4 km/h 97% 1.27 mm 0.0 W/m2
12:13 6.7 °C 6.2 °C 1009.7 hPa WNW 13 km/h 13 km/h 97% 2.03 mm 0.0 W/m2
12:18 6.6 °C 6.1 °C 1009.7 hPa WSW 3.7 km/h 3.7 km/h 97% 2.79 mm 0.0 W/m2
12:23 6.3 °C 5.9 °C 1009 hPa WSW 5.6 km/h 5.6 km/h 97% 3.56 mm 0.0 W/m2
12:28 6.2 °C 5.8 °C 1009.4 hPa South 7.4 km/h 7.4 km/h 97% 4.32 mm 0.0 W/m2
12:33 6.1 °C 5.6 °C 1009.4 hPa West 7.4 km/h 7.4 km/h 97% 5.59 mm 0.0 W/m2
12:38 5.8 °C 5.4 °C 1009.7 hPa WSW 9.3 km/h 9.3 km/h 97% 6.35 mm 0.0 W/m2
12:43 5.6 °C 5 °C 1009.4 hPa West 7.4 km/h 7.4 km/h 96% 6.86 mm 0.0 W/m2
12:48 5.6 °C 5.1 °C 1010 hPa West 7.4 km/h 7.4 km/h 97% 7.37 mm 0.0 W/m2
12:53 5.5 °C 5.1 °C 1010 hPa West 18.5 km/h 18.5 km/h 97% 7.62 mm 0.0 W/m2
12:58 5.4 °C 4.9 °C 1010 hPa WNW 11.1 km/h 11.1 km/h 97% 7.62 mm 0.0 W/m2
13:03 5.3 °C 4.9 °C 1010 hPa WNW 7.4 km/h 7.4 km/h 97% 7.62 mm 0.0 W/m2
13:08 5.4 °C 4.9 °C 1009.7 hPa WNW 6.4 km/h 6.4 km/h 97% 6.6 mm 0.0 W/m2
13:13 5.4 °C 4.9 °C 1009.7 hPa WNW 11.1 km/h 11.1 km/h 97% 5.84 mm 0.0 W/m2
13:18 5.3 °C 4.8 °C 1009.7 hPa NW 9.3 km/h 9.3 km/h 97% 5.08 mm 0.0 W/m2
13:23 5.2 °C 4.8 °C 1009.7 hPa NW 6.4 km/h 6.4 km/h 97% 4.32 mm 0.0 W/m2
13:28 5.2 °C 4.7 °C 1009.7 hPa North 11.1 km/h 11.1 km/h 97% 3.56 mm 0.0 W/m2
13:33 5 °C 4.6 °C 1009.7 hPa NNE 11.1 km/h 11.1 km/h 97% 2.29 mm 0.0 W/m2
13:38 4.9 °C 4.3 °C 1010.4 hPa WNW 3.7 km/h 3.7 km/h 96% 1.52 mm 0.0 W/m2
13:43 4.9 °C 4.3 °C 1010 hPa NNW 3.7 km/h 3.7 km/h 96% 1.27 mm 0.0 W/m2
13:48 4.8 °C 4.2 °C 1008.4 hPa ESE 5.6 km/h 5.6 km/h 96% 1.02 mm 0.0 W/m2
13:53 4.8 °C 4.2 °C 1009.4 hPa SE 3.7 km/h 3.7 km/h 96% 1.02 mm 0.0 W/m2
13:58 4.8 °C 4.4 °C 1009.7 hPa SE 1.9 km/h   97% 0.76 mm 0.0 W/m2
14:03 4.9 °C 4.5 °C 1010 hPa SE 1.6 km/h 1.6 km/h 97% 1.02 mm 0.0 W/m2
14:08 5 °C 4.6 °C 1010 hPa SE 3.7 km/h 3.7 km/h 97% 1.02 mm 0.0 W/m2
14:13 5.1 °C 4.6 °C 1010.4 hPa SE 3.7 km/h 3.7 km/h 97% 1.02 mm 0.0 W/m2
14:14 5.5 °C 5.1 °C 1010.4 hPa SSE 3.2 km/h 6.4 km/h 97% 0 mm 0.0 W/m2
14:18 5.2 °C 4.7 °C 1010.4 hPa South 4.8 km/h 4.8 km/h 97% 1.02 mm 0.0 W/m2
14:19 5.6 °C 5.1 °C 1010.7 hPa South 3.2 km/h 6.4 km/h 97% 0 mm 0.0 W/m2
14:23 5.3 °C 4.8 °C 1010 hPa SSE 9.7 km/h 9.7 km/h 97% 1.02 mm 0.0 W/m2
14:24 5.6 °C 5.1 °C 1010.7 hPa Calm   6.4 km/h 97% 0 mm 0.0 W/m2
14:28 5.4 °C 4.9 °C 1009 hPa ENE 8 km/h 8 km/h 97% 1.02 mm 0.0 W/m2
14:29 5.6 °C 5.1 °C 1011.1 hPa SSW 1.6 km/h 6.4 km/h 97% 0 mm 0.0 W/m2
14:33 5.5 °C 5.1 °C 1010 hPa WNW 5.6 km/h 5.6 km/h 97% 1.02 mm 0.0 W/m2
14:34 5.6 °C 5.2 °C 1011.4 hPa SSW 3.2 km/h 6.4 km/h 97% 0 mm 0.0 W/m2
14:38 5.6 °C 5.1 °C 1010 hPa SW 1.9 km/h   97% 1.02 mm 0.0 W/m2
14:39 5.6 °C 5.2 °C 1011.4 hPa WSW 1.6 km/h 6.4 km/h 97% 0 mm 0.0 W/m2
14:43 5.6 °C 5.1 °C 1010 hPa WSW 3.7 km/h 3.7 km/h 97% 0.76 mm 0.0 W/m2
14:44 5.6 °C 5.1 °C 1011.7 hPa West 8 km/h 12.9 km/h 97% 0 mm 0.0 W/m2
14:48 5.6 °C 5.1 °C 1010.4 hPa WSW 4.8 km/h 4.8 km/h 97% 0.51 mm 0.0 W/m2
14:49 5.3 °C 4.7 °C 1011.1 hPa WSW 4.8 km/h 9.7 km/h 96% 0 mm 0.0 W/m2
14:53 5.6 °C 5.1 °C 1010.7 hPa West 5.6 km/h 5.6 km/h 97% 0.25 mm 0.0 W/m2
14:54 5.1 °C 4.4 °C 1011.1 hPa WSW 4.8 km/h 8 km/h 96% 0 mm 0.0 W/m2
14:58 5.6 °C 5.1 °C 1010.7 hPa South 7.4 km/h 7.4 km/h 97% 0.25 mm 0.0 W/m2
14:59 4.8 °C 4.2 °C 1011.7 hPa WSW 4.8 km/h 11.3 km/h 96% 0 mm 0.0 W/m2
15:03 5.5 °C 5.1 °C 1010.7 hPa South 7.4 km/h 7.4 km/h 97% 0 mm 0.0 W/m2
15:04 4.5 °C 3.9 °C 1012.1 hPa WSW 9.7 km/h 12.9 km/h 96% 0 mm 0.0 W/m2
15:08 5.5 °C 5.1 °C 1010.4 hPa SSE 7.4 km/h 7.4 km/h 97% 0 mm 0.0 W/m2
16:12 4.1 °C 3.5 °C 1012.4 hPa WSW 9.7 km/h 9.7 km/h 96% 0 mm 0.0 W/m2
16:17 3.9 °C 3.3 °C 1012.4 hPa West 13 km/h 13 km/h 96% 0 mm 0.0 W/m2
16:22 3.7 °C 3.2 °C 1012.4 hPa WSW 12.9 km/h 12.9 km/h 96% 0 mm 0.0 W/m2
16:27 3.7 °C 3.1 °C 1012.4 hPa WSW 13 km/h 13 km/h 96% 0 mm 0.0 W/m2
16:32 3.6 °C 3 °C 1012.8 hPa WSW 13 km/h 13 km/h 96% 0 mm 0.0 W/m2
16:37 3.5 °C 2.9 °C 1013.1 hPa WSW 7.4 km/h 7.4 km/h 96% 0 mm 0.0 W/m2
16:42 3.4 °C 2.9 °C 1013.4 hPa South 11.1 km/h 11.1 km/h 96% 0 mm 0.0 W/m2
16:47 3.3 °C 2.7 °C 1013.4 hPa West 16.7 km/h 16.7 km/h 96% 0 mm 0.0 W/m2
16:52 3.2 °C 2.6 °C 1013.4 hPa SSW 16.7 km/h 16.7 km/h 96% 0 mm 0.0 W/m2
16:57 3.1 °C 2.5 °C 1014.1 hPa WSW 14.8 km/h 14.8 km/h 96% 0 mm 0.0 W/m2
17:02 3 °C 2.4 °C 1014.1 hPa SSW 11.1 km/h 11.1 km/h 96% 0 mm 0.0 W/m2
17:07 2.9 °C 2.4 °C 1013.8 hPa WSW 11.1 km/h 11.1 km/h 96% 0 mm 0.0 W/m2
17:12 2.8 °C 2.3 °C 1014.4 hPa WSW 14.8 km/h 14.8 km/h 96% 0 mm 0.0 W/m2
17:17 2.9 °C 2.4 °C 1014.4 hPa SW 13 km/h 13 km/h 97% 0 mm 0.0 W/m2
17:22 2.9 °C 2.4 °C 1014.8 hPa WNW 7.4 km/h 7.4 km/h 97% 0 mm 0.0 W/m2
17:27 2.9 °C 2.4 °C 1014.8 hPa WSW 14.8 km/h 14.8 km/h 97% 0 mm 0.0 W/m2
17:32 2.8 °C 2.4 °C 1014.8 hPa WSW 14.8 km/h 14.8 km/h 97% 0 mm 0.0 W/m2
17:38 2.8 °C 2.2 °C 1014.8 hPa SW 13 km/h 13 km/h 96% 0 mm 0.0 W/m2
17:42 2.8 °C 2.2 °C 1015.1 hPa SSW 9.3 km/h 9.3 km/h 96% 0 mm 0.0 W/m2
17:48 2.8 °C 2.2 °C 1015.5 hPa West 13 km/h 13 km/h 96% 0 mm 0.0 W/m2
17:53 2.8 °C 2.2 °C 1015.5 hPa SW 16.7 km/h 16.7 km/h 96% 0 mm 0.0 W/m2
17:58 2.8 °C 2.2 °C 1015.8 hPa West 16.7 km/h 16.7 km/h 96% 0 mm 0.0 W/m2
18:03 2.7 °C 2.2 °C 1015.8 hPa WSW 11.1 km/h 11.1 km/h 96% 0 mm 0.0 W/m2
18:08 2.7 °C 2.2 °C 1015.8 hPa West 18.5 km/h 18.5 km/h 96% 0 mm 0.0 W/m2
18:13 2.7 °C 2.2 °C 1016.1 hPa SSW 13 km/h 13 km/h 96% 0 mm 0.0 W/m2
18:18 2.7 °C 2.2 °C 1016.5 hPa South 13 km/h 13 km/h 96% 0 mm 0.0 W/m2
18:23 2.7 °C 2.2 °C 1016.5 hPa West 9.7 km/h 9.7 km/h 96% 0 mm 0.0 W/m2
18:28 2.7 °C 2.2 °C 1016.8 hPa WSW 9.7 km/h 9.7 km/h 96% 0 mm 0.0 W/m2
18:33 2.7 °C 2.2 °C 1016.8 hPa SW 11.1 km/h 11.1 km/h 96% 0 mm 0.0 W/m2
18:38 2.7 °C 2.1 °C 1016.8 hPa WNW 9.3 km/h 9.3 km/h 96% 0 mm 0.0 W/m2
18:43 2.7 °C 2.2 °C 1017.2 hPa WSW 11.1 km/h 11.1 km/h 96% 0 mm 0.0 W/m2
18:48 2.7 °C 2.2 °C 1017.2 hPa SW 18.5 km/h 18.5 km/h 96% 0 mm 0.0 W/m2
18:53 2.8 °C 2.2 °C 1017.2 hPa SW 13 km/h 13 km/h 96% 0 mm 0.0 W/m2
18:58 2.8 °C 2.2 °C 1017.5 hPa SW 13 km/h 13 km/h 96% 0 mm 0.0 W/m2
19:03 2.8 °C 2.3 °C 1017.8 hPa West 11.1 km/h 11.1 km/h 96% 0 mm 0.0 W/m2
19:08 2.8 °C 2.2 °C 1017.8 hPa WSW 18.5 km/h 18.5 km/h 96% 0 mm 0.0 W/m2
19:13 2.8 °C 2.2 °C 1017.8 hPa WSW 14.8 km/h 14.8 km/h 96% 0 mm 0.0 W/m2
19:18 2.8 °C 2.2 °C 1018.2 hPa WSW 5.6 km/h 7.1 km/h 96% 0 mm 0.0 W/m2
19:23 2.7 °C 1.9 °C 1018.5 hPa WSW 13 km/h 13 km/h 95% 0 mm 0.0 W/m2
19:28 2.7 °C 1.9 °C 1018.5 hPa SW 11.1 km/h 11.1 km/h 95% 0 mm 0.0 W/m2
19:33 2.6 °C 1.8 °C 1018.5 hPa WSW 13 km/h 13 km/h 95% 0 mm 0.0 W/m2
19:38 2.5 °C 1.8 °C 1018.8 hPa WSW 16.7 km/h 16.7 km/h 95% 0 mm 0.0 W/m2
19:43 2.4 °C 1.7 °C 1018.8 hPa WSW 9.7 km/h 9.7 km/h 95% 0 mm 0.0 W/m2
19:48 2.3 °C 1.6 °C 1019.2 hPa South 20.4 km/h 20.4 km/h 95% 0 mm 0.0 W/m2
19:53 2.3 °C 1.6 °C 1019.2 hPa West 5.6 km/h 5.6 km/h 95% 0 mm 0.0 W/m2
19:58 2.2 °C 1.5 °C 1019.5 hPa SW 6.4 km/h 6.4 km/h 95% 0 mm 0.0 W/m2
20:03 2.2 °C 1.4 °C 1019.5 hPa SW 16.7 km/h 16.7 km/h 95% 0 mm 0.0 W/m2
20:08 2.1 °C 1.2 °C 1019.9 hPa SSW 6.4 km/h 6.4 km/h 94% 0 mm 0.0 W/m2
20:13 2.1 °C 1.2 °C 1019.9 hPa WNW 16.1 km/h 16.1 km/h 94% 0 mm 0.0 W/m2
20:18 2 °C 1.1 °C 1019.9 hPa WSW 16.7 km/h 16.7 km/h 94% 0 mm 0.0 W/m2
20:23 2 °C 1.1 °C 1020.2 hPa WSW 18.5 km/h 18.5 km/h 94% 0 mm 0.0 W/m2
20:28 2 °C 1.1 °C 1020.5 hPa SSW 14.8 km/h 14.8 km/h 94% 0 mm 0.0 W/m2
20:33 1.9 °C 0.9 °C 1020.5 hPa WSW 11.1 km/h 11.1 km/h 93% 0 mm 0.0 W/m2
20:38 1.9 °C 0.9 °C 1020.5 hPa WSW 16.7 km/h 16.7 km/h 93% 0 mm 0.0 W/m2
20:43 1.8 °C 0.7 °C 1020.9 hPa SW 18.5 km/h 18.5 km/h 92% 0 mm 0.0 W/m2
20:48 1.8 °C 0.5 °C 1020.9 hPa WNW 18.5 km/h 18.5 km/h 91% 0 mm 0.0 W/m2
20:53 1.8 °C 0.5 °C 1020.9 hPa SW 18.5 km/h 18.5 km/h 91% 0 mm 0.0 W/m2
20:58 1.8 °C 0.5 °C 1020.9 hPa SW 14.8 km/h 14.8 km/h 91% 0 mm 0.0 W/m2
21:03 1.8 °C 0.5 °C 1021.2 hPa West 13 km/h 13 km/h 91% 0 mm 0.0 W/m2
21:08 1.8 °C 0.4 °C 1021.2 hPa West 16.7 km/h 16.7 km/h 91% 0 mm 0.0 W/m2
21:13 1.7 °C 0.4 °C 1021.2 hPa SW 18.5 km/h 18.5 km/h 91% 0 mm 0.0 W/m2
21:18 1.6 °C 0.3 °C 1021.6 hPa West 22.2 km/h 22.2 km/h 91% 0 mm 0.0 W/m2
21:23 1.6 °C 0.4 °C 1021.9 hPa West 14.5 km/h 14.5 km/h 92% 0 mm 0.0 W/m2
21:28 1.6 °C 0.4 °C 1021.9 hPa West 13 km/h 13 km/h 92% 0 mm 0.0 W/m2
21:33 1.6 °C 0.2 °C 1021.9 hPa WSW 14.8 km/h 14.8 km/h 91% 0 mm 0.0 W/m2
21:38 1.5 °C 0.2 °C 1022.2 hPa WSW 16.7 km/h 16.7 km/h 91% 0 mm 0.0 W/m2
21:43 1.4 °C 0.1 °C 1022.2 hPa South 13 km/h 13 km/h 91% 0 mm 0.0 W/m2
21:48 1.4 °C 0.1 °C 1022.2 hPa WSW 13 km/h 13 km/h 91% 0 mm 0.0 W/m2
21:53 1.4 °C 0.1 °C 1022.6 hPa WSW 13 km/h 13 km/h 91% 0 mm 0.0 W/m2
21:58 1.4 °C -0.1 °C 1022.6 hPa West 11.1 km/h 11.1 km/h 90% 0 mm 0.0 W/m2
22:03 1.4 °C -0.1 °C 1022.6 hPa SW 18.5 km/h 18.5 km/h 90% 0 mm 0.0 W/m2
22:08 1.3 °C -0.1 °C 1022.6 hPa West 13 km/h 13 km/h 90% 0 mm 0.0 W/m2
22:13 1.3 °C -0.2 °C 1022.6 hPa West 18.5 km/h 18.5 km/h 90% 0 mm 0.0 W/m2
22:18 1.3 °C -0.2 °C 1022.9 hPa WSW 12.9 km/h 12.9 km/h 90% 0 mm 0.0 W/m2
22:23 1.2 °C -0.2 °C 1022.9 hPa SW 13 km/h 13 km/h 90% 0 mm 0.0 W/m2
22:28 1.2 °C -0.2 °C 1022.9 hPa WSW 11.1 km/h 11.1 km/h 90% 0 mm 0.0 W/m2
22:33 1.2 °C -0.3 °C 1022.9 hPa WSW 13 km/h 13 km/h 90% 0 mm 0.0 W/m2
22:38 1.1 °C -0.6 °C 1022.9 hPa SSW 13 km/h 13 km/h 89% 0 mm 0.0 W/m2
22:43 1 °C -0.6 °C 1022.9 hPa SW 14.8 km/h 14.8 km/h 89% 0 mm 0.0 W/m2
22:48 0.9 °C -0.5 °C 1023.2 hPa West 9.7 km/h 9.7 km/h 90% 0 mm 0.0 W/m2
22:53 0.8 °C -0.6 °C 1023.2 hPa West 14.8 km/h 14.8 km/h 90% 0 mm 0.0 W/m2
22:58 0.8 °C -0.7 °C 1023.2 hPa West 12.9 km/h 12.9 km/h 90% 0 mm 0.0 W/m2
23:03 0.7 °C -0.6 °C 1023.2 hPa SW 16.7 km/h 16.7 km/h 91% 0 mm 0.0 W/m2
23:08 0.7 °C -0.6 °C 1023.6 hPa WSW 16.7 km/h 16.7 km/h 91% 0 mm 0.0 W/m2
23:13 0.7 °C -0.6 °C 1023.6 hPa West 19.3 km/h 19.3 km/h 91% 0 mm 0.0 W/m2
23:18 0.7 °C -0.5 °C 1023.6 hPa SW 16.7 km/h 16.7 km/h 92% 0 mm 0.0 W/m2
23:23 0.7 °C -0.5 °C 1023.9 hPa West 9.3 km/h 9.3 km/h 92% 0 mm 0.0 W/m2
23:28 0.7 °C -0.5 °C 1023.9 hPa West 17.7 km/h 17.7 km/h 92% 0 mm 0.0 W/m2
23:33 0.7 °C -0.5 °C 1023.9 hPa WSW 16.1 km/h 16.1 km/h 92% 0 mm 0.0 W/m2
23:38 0.7 °C -0.6 °C 1023.9 hPa WSW 18.5 km/h 18.5 km/h 91% 0 mm 0.0 W/m2
23:43 0.7 °C -0.8 °C 1023.9 hPa West 27.8 km/h 27.8 km/h 90% 0 mm 0.0 W/m2
23:48 0.7 °C -0.7 °C 1023.9 hPa WSW 18.5 km/h 18.5 km/h 90% 0 mm 0.0 W/m2
23:53 0.7 °C -0.9 °C 1024.3 hPa WSW 22.2 km/h 22.2 km/h 89% 0 mm 0.0 W/m2
23:58 0.7 °C -0.9 °C 1024.3 hPa SW 16.7 km/h 16.7 km/h 89% 0 mm 0.0 W/m2
west seneca weather
Compliments of Weather Underground - 2 mb